sensor_id;sensor_type;location;lat;lon;timestamp;P1;durP1;ratioP1;P2;durP2;ratioP2
33840;SDS011;20142;28.494;-16.312;2023-02-13T15:36:43;153.73;;;22.55;;
33840;SDS011;20142;28.494;-16.312;2023-02-13T15:41:49;157.90;;;20.13;;
33840;SDS011;20142;28.494;-16.312;2023-02-13T15:46:58;169.23;;;23.15;;
33840;SDS011;20142;28.494;-16.312;2023-02-13T15:52:17;159.20;;;22.90;;
33840;SDS011;20142;28.494;-16.312;2023-02-13T15:57:34;157.70;;;21.58;;
33840;SDS011;20142;28.494;-16.312;2023-02-13T16:02:40;152.55;;;21.85;;
33840;SDS011;20142;28.494;-16.312;2023-02-13T16:07:51;157.10;;;21.95;;
33840;SDS011;20142;28.494;-16.312;2023-02-13T16:12:58;167.55;;;24.50;;
33840;SDS011;20142;28.494;-16.312;2023-02-13T16:18:09;165.40;;;25.40;;
33840;SDS011;20142;28.494;-16.312;2023-02-13T16:23:19;169.65;;;25.48;;
33840;SDS011;20142;28.494;-16.312;2023-02-13T16:28:25;196.38;;;26.52;;
33840;SDS011;20142;28.494;-16.312;2023-02-13T16:33:32;203.07;;;26.65;;
33840;SDS011;20142;28.494;-16.312;2023-02-13T16:38:37;189.25;;;27.02;;
33840;SDS011;20142;28.494;-16.312;2023-02-13T16:43:50;192.82;;;27.80;;
33840;SDS011;20142;28.494;-16.312;2023-02-13T16:53:58;223.10;;;30.90;;
33840;SDS011;20142;28.494;-16.312;2023-02-13T17:10:17;216.73;;;29.73;;
33840;SDS011;20142;28.494;-16.312;2023-02-13T17:15:23;253.75;;;32.72;;
33840;SDS011;20142;28.494;-16.312;2023-02-13T17:20:30;229.73;;;30.60;;
33840;SDS011;20142;28.494;-16.312;2023-02-13T17:25:35;241.57;;;32.33;;
33840;SDS011;20142;28.494;-16.312;2023-02-13T17:30:38;245.65;;;30.85;;
33840;SDS011;20142;28.494;-16.312;2023-02-13T17:35:40;258.48;;;32.97;;
33840;SDS011;20142;28.494;-16.312;2023-02-13T17:40:42;257.23;;;34.20;;
33840;SDS011;20142;28.494;-16.312;2023-02-13T17:45:45;221.95;;;31.17;;
33840;SDS011;20142;28.494;-16.312;2023-02-13T17:50:48;244.40;;;31.50;;
33840;SDS011;20142;28.494;-16.312;2023-02-13T17:55:50;238.88;;;33.95;;
33840;SDS011;20142;28.494;-16.312;2023-02-13T18:00:53;232.63;;;30.52;;
33840;SDS011;20142;28.494;-16.312;2023-02-13T18:05:54;251.10;;;32.25;;
33840;SDS011;20142;28.494;-16.312;2023-02-13T18:10:56;258.85;;;34.15;;
33840;SDS011;20142;28.494;-16.312;2023-02-13T18:15:58;259.80;;;32.50;;
33840;SDS011;20142;28.494;-16.312;2023-02-13T18:20:59;230.60;;;31.92;;
33840;SDS011;20142;28.494;-16.312;2023-02-13T18:26:05;283.92;;;32.15;;
33840;SDS011;20142;28.494;-16.312;2023-02-13T18:31:09;275.83;;;34.20;;
33840;SDS011;20142;28.494;-16.312;2023-02-13T18:36:11;272.55;;;33.22;;
33840;SDS011;20142;28.494;-16.312;2023-02-13T18:41:13;267.90;;;30.98;;
33840;SDS011;20142;28.494;-16.312;2023-02-13T18:46:14;265.23;;;31.30;;
33840;SDS011;20142;28.494;-16.312;2023-02-13T18:51:16;281.17;;;33.25;;
33840;SDS011;20142;28.494;-16.312;2023-02-13T18:56:18;297.77;;;33.63;;
33840;SDS011;20142;28.494;-16.312;2023-02-13T19:01:22;258.83;;;31.83;;
33840;SDS011;20142;28.494;-16.312;2023-02-13T19:06:24;286.83;;;33.58;;
33840;SDS011;20142;28.494;-16.312;2023-02-13T19:11:26;256.75;;;29.63;;
33840;SDS011;20142;28.494;-16.312;2023-02-13T19:16:28;281.52;;;32.83;;
33840;SDS011;20142;28.494;-16.312;2023-02-13T19:21:33;281.58;;;30.55;;
33840;SDS011;20142;28.494;-16.312;2023-02-13T19:26:38;263.10;;;30.27;;
33840;SDS011;20142;28.494;-16.312;2023-02-13T19:31:39;272.52;;;31.67;;
33840;SDS011;20142;28.494;-16.312;2023-02-13T19:36:41;255.00;;;29.60;;
33840;SDS011;20142;28.494;-16.312;2023-02-13T19:41:43;250.38;;;30.17;;
33840;SDS011;20142;28.494;-16.312;2023-02-13T19:46:44;284.35;;;30.02;;
33840;SDS011;20142;28.494;-16.312;2023-02-13T19:51:46;255.60;;;30.38;;
33840;SDS011;20142;28.494;-16.312;2023-02-13T19:56:48;242.63;;;29.33;;
33840;SDS011;20142;28.494;-16.312;2023-02-13T20:01:50;256.73;;;29.35;;
33840;SDS011;20142;28.494;-16.312;2023-02-13T20:06:51;239.63;;;31.13;;
33840;SDS011;20142;28.494;-16.312;2023-02-13T20:11:57;257.02;;;29.20;;
33840;SDS011;20142;28.494;-16.312;2023-02-13T20:16:59;251.55;;;29.67;;
33840;SDS011;20142;28.494;-16.312;2023-02-13T20:22:01;228.23;;;28.27;;
33840;SDS011;20142;28.494;-16.312;2023-02-13T20:27:02;233.68;;;29.25;;
33840;SDS011;20142;28.494;-16.312;2023-02-13T20:32:04;256.40;;;28.88;;
33840;SDS011;20142;28.494;-16.312;2023-02-13T20:37:06;224.18;;;27.30;;
33840;SDS011;20142;28.494;-16.312;2023-02-13T20:42:08;249.75;;;26.48;;
33840;SDS011;20142;28.494;-16.312;2023-02-13T20:47:09;248.23;;;28.85;;
33840;SDS011;20142;28.494;-16.312;2023-02-13T20:52:11;230.75;;;27.50;;
33840;SDS011;20142;28.494;-16.312;2023-02-13T20:57:13;228.95;;;25.83;;
33840;SDS011;20142;28.494;-16.312;2023-02-13T21:02:15;219.30;;;27.33;;
33840;SDS011;20142;28.494;-16.312;2023-02-13T21:07:19;235.45;;;26.98;;
33840;SDS011;20142;28.494;-16.312;2023-02-13T21:12:21;210.93;;;28.77;;
33840;SDS011;20142;28.494;-16.312;2023-02-13T21:17:22;231.35;;;27.15;;
33840;SDS011;20142;28.494;-16.312;2023-02-13T21:22:24;239.27;;;27.73;;
33840;SDS011;20142;28.494;-16.312;2023-02-13T21:27:26;242.77;;;29.40;;
33840;SDS011;20142;28.494;-16.312;2023-02-13T21:32:28;257.52;;;30.50;;
33840;SDS011;20142;28.494;-16.312;2023-02-13T21:37:29;257.27;;;28.52;;
33840;SDS011;20142;28.494;-16.312;2023-02-13T21:42:31;252.77;;;29.73;;
33840;SDS011;20142;28.494;-16.312;2023-02-13T21:47:33;251.30;;;30.63;;
33840;SDS011;20142;28.494;-16.312;2023-02-13T21:52:35;272.33;;;28.85;;
33840;SDS011;20142;28.494;-16.312;2023-02-13T21:57:36;233.20;;;28.90;;
33840;SDS011;20142;28.494;-16.312;2023-02-13T22:02:39;249.95;;;30.30;;
33840;SDS011;20142;28.494;-16.312;2023-02-13T22:07:41;259.35;;;29.60;;
33840;SDS011;20142;28.494;-16.312;2023-02-13T22:13:01;270.83;;;31.13;;
33840;SDS011;20142;28.494;-16.312;2023-02-13T22:18:03;272.83;;;31.08;;
33840;SDS011;20142;28.494;-16.312;2023-02-13T22:23:05;247.63;;;28.98;;
33840;SDS011;20142;28.494;-16.312;2023-02-13T22:28:07;301.27;;;30.15;;
33840;SDS011;20142;28.494;-16.312;2023-02-13T22:33:08;240.35;;;30.02;;
33840;SDS011;20142;28.494;-16.312;2023-02-13T22:38:10;264.48;;;30.50;;
33840;SDS011;20142;28.494;-16.312;2023-02-13T22:43:12;267.35;;;32.85;;
33840;SDS011;20142;28.494;-16.312;2023-02-13T22:48:14;271.48;;;30.23;;
33840;SDS011;20142;28.494;-16.312;2023-02-13T22:53:15;257.77;;;29.73;;
33840;SDS011;20142;28.494;-16.312;2023-02-13T22:58:17;282.80;;;30.20;;
33840;SDS011;20142;28.494;-16.312;2023-02-13T23:03:19;299.33;;;29.58;;
33840;SDS011;20142;28.494;-16.312;2023-02-13T23:08:21;282.17;;;29.98;;
33840;SDS011;20142;28.494;-16.312;2023-02-13T23:13:23;245.23;;;28.40;;
33840;SDS011;20142;28.494;-16.312;2023-02-13T23:18:24;250.93;;;27.63;;
33840;SDS011;20142;28.494;-16.312;2023-02-13T23:23:26;273.80;;;30.48;;
33840;SDS011;20142;28.494;-16.312;2023-02-13T23:28:28;273.15;;;30.60;;
33840;SDS011;20142;28.494;-16.312;2023-02-13T23:33:29;270.08;;;32.30;;
33840;SDS011;20142;28.494;-16.312;2023-02-13T23:38:31;276.05;;;30.60;;
33840;SDS011;20142;28.494;-16.312;2023-02-13T23:43:33;260.42;;;29.88;;
33840;SDS011;20142;28.494;-16.312;2023-02-13T23:48:35;262.55;;;31.80;;
33840;SDS011;20142;28.494;-16.312;2023-02-13T23:53:36;290.17;;;31.00;;
33840;SDS011;20142;28.494;-16.312;2023-02-13T23:58:38;275.40;;;29.33;;
